Algona, Washington
Current Conditions -  °F | °C
As of 6:53 PM on Saturday 22 Nov 2014 (Local Time) from KSEA Reporting Station
Overcast Overcast  
Wind Chill: 44°   Ceiling: 2000
Heat Index: 47°   Visibility: 10mi
Dew Point: 42°   Wind: 7mph
Humidity: 83%   Direction: 180°S
Pressure: 30.04"   Gusts: NA
Location:  47.31°N, 122.266°W
Report Text: KSEA 230253Z 18006KT 10SM BKN020 OVC110 08/06 A3004 RMK AO2 SLP182 T00830056 53029
Loading
Personal Weather Stations






























Interactive Weather Map New forecast layout! Learn more

10-Day Weather Forecast

Advertisements
Track Severe Weather on mobile